sensor_id;sensor_type;location;lat;lon;timestamp;pressure;altitude;pressure_sealevel;temperature;humidity
57900;BME280;60605;53.716;19.940;2022-11-15T00:01:09;100705.22;;;6.72;100.00
57900;BME280;60605;53.716;19.940;2022-11-15T00:06:13;100705.89;;;6.70;100.00
57900;BME280;60605;53.716;19.940;2022-11-15T00:11:16;100698.31;;;6.68;100.00
57900;BME280;60605;53.716;19.940;2022-11-15T00:16:20;100689.91;;;6.64;100.00
57900;BME280;60605;53.716;19.940;2022-11-15T00:21:23;100680.42;;;6.60;100.00
57900;BME280;60605;53.716;19.940;2022-11-15T00:26:27;100678.09;;;6.56;100.00
57900;BME280;60605;53.716;19.940;2022-11-15T00:31:30;100669.80;;;6.53;100.00
57900;BME280;60605;53.716;19.940;2022-11-15T00:36:33;100660.47;;;6.52;100.00
57900;BME280;60605;53.716;19.940;2022-11-15T00:41:37;100653.64;;;6.53;100.00
57900;BME280;60605;53.716;19.940;2022-11-15T00:46:40;100646.77;;;6.55;100.00
57900;BME280;60605;53.716;19.940;2022-11-15T00:51:44;100643.92;;;6.57;100.00
57900;BME280;60605;53.716;19.940;2022-11-15T00:56:47;100641.56;;;6.60;100.00
57900;BME280;60605;53.716;19.940;2022-11-15T01:01:50;100636.17;;;6.63;100.00
57900;BME280;60605;53.716;19.940;2022-11-15T01:06:53;100625.41;;;6.65;100.00
57900;BME280;60605;53.716;19.940;2022-11-15T01:11:57;100616.48;;;6.67;100.00
57900;BME280;60605;53.716;19.940;2022-11-15T01:17:00;100615.80;;;6.69;100.00
57900;BME280;60605;53.716;19.940;2022-11-15T01:22:03;100611.27;;;6.70;100.00
57900;BME280;60605;53.716;19.940;2022-11-15T01:27:06;100605.05;;;6.73;100.00
57900;BME280;60605;53.716;19.940;2022-11-15T01:32:10;100598.63;;;6.74;100.00
57900;BME280;60605;53.716;19.940;2022-11-15T01:37:13;100597.36;;;6.74;100.00
57900;BME280;60605;53.716;19.940;2022-11-15T01:42:16;100595.77;;;6.71;100.00
57900;BME280;60605;53.716;19.940;2022-11-15T01:52:27;100581.85;;;6.63;100.00
57900;BME280;60605;53.716;19.940;2022-11-15T01:57:31;100573.45;;;6.60;100.00
57900;BME280;60605;53.716;19.940;2022-11-15T02:02:36;100565.61;;;6.53;100.00
57900;BME280;60605;53.716;19.940;2022-11-15T02:07:40;100561.04;;;6.48;100.00
57900;BME280;60605;53.716;19.940;2022-11-15T02:12:44;100557.11;;;6.44;100.00
57900;BME280;60605;53.716;19.940;2022-11-15T02:18:14;100553.38;;;6.40;100.00
57900;BME280;60605;53.716;19.940;2022-11-15T02:28:39;100533.28;;;6.31;100.00
57900;BME280;60605;53.716;19.940;2022-11-15T02:34:08;100530.19;;;6.28;100.00
57900;BME280;60605;53.716;19.940;2022-11-15T02:44:27;100522.29;;;6.20;100.00
57900;BME280;60605;53.716;19.940;2022-11-15T02:49:33;100516.04;;;6.16;100.00
57900;BME280;60605;53.716;19.940;2022-11-15T02:54:37;100512.20;;;6.13;100.00
57900;BME280;60605;53.716;19.940;2022-11-15T03:00:07;100511.01;;;6.13;100.00
57900;BME280;60605;53.716;19.940;2022-11-15T03:10:46;100498.94;;;6.13;100.00
57900;BME280;60605;53.716;19.940;2022-11-15T03:16:03;100486.52;;;6.13;100.00
57900;BME280;60605;53.716;19.940;2022-11-15T03:21:11;100481.88;;;6.11;100.00
57900;BME280;60605;53.716;19.940;2022-11-15T03:26:19;100477.42;;;6.09;100.00
57900;BME280;60605;53.716;19.940;2022-11-15T03:31:28;100471.52;;;6.08;100.00
57900;BME280;60605;53.716;19.940;2022-11-15T03:36:53;100468.46;;;6.06;100.00
57900;BME280;60605;53.716;19.940;2022-11-15T03:47:36;100457.01;;;6.03;100.00
57900;BME280;60605;53.716;19.940;2022-11-15T03:52:42;100449.52;;;6.01;100.00
57900;BME280;60605;53.716;19.940;2022-11-15T03:57:50;100448.37;;;6.02;100.00
57900;BME280;60605;53.716;19.940;2022-11-15T04:02:54;100445.64;;;6.01;100.00
57900;BME280;60605;53.716;19.940;2022-11-15T04:07:58;100437.36;;;6.00;100.00
57900;BME280;60605;53.716;19.940;2022-11-15T04:13:02;100430.36;;;5.99;100.00
57900;BME280;60605;53.716;19.940;2022-11-15T04:18:05;100429.23;;;6.00;100.00
57900;BME280;60605;53.716;19.940;2022-11-15T04:23:10;100429.15;;;5.96;100.00
57900;BME280;60605;53.716;19.940;2022-11-15T04:28:33;100429.21;;;5.93;100.00
57900;BME280;60605;53.716;19.940;2022-11-15T04:33:37;100429.93;;;5.93;100.00
57900;BME280;60605;53.716;19.940;2022-11-15T04:38:40;100431.94;;;5.92;100.00
57900;BME280;60605;53.716;19.940;2022-11-15T04:43:44;100423.59;;;5.90;100.00
57900;BME280;60605;53.716;19.940;2022-11-15T04:48:47;100418.61;;;5.86;100.00
57900;BME280;60605;53.716;19.940;2022-11-15T04:53:50;100421.27;;;5.84;100.00
57900;BME280;60605;53.716;19.940;2022-11-15T04:58:53;100419.77;;;5.83;100.00
57900;BME280;60605;53.716;19.940;2022-11-15T05:03:56;100419.91;;;5.81;100.00
57900;BME280;60605;53.716;19.940;2022-11-15T05:09:21;100420.61;;;5.78;100.00
57900;BME280;60605;53.716;19.940;2022-11-15T05:14:25;100424.19;;;5.76;100.00
57900;BME280;60605;53.716;19.940;2022-11-15T05:19:28;100423.09;;;5.71;100.00
57900;BME280;60605;53.716;19.940;2022-11-15T05:24:31;100416.98;;;5.68;100.00
57900;BME280;60605;53.716;19.940;2022-11-15T05:29:35;100407.64;;;5.68;100.00
57900;BME280;60605;53.716;19.940;2022-11-15T05:34:38;100405.73;;;5.62;100.00
57900;BME280;60605;53.716;19.940;2022-11-15T05:39:41;100404.22;;;5.57;100.00
57900;BME280;60605;53.716;19.940;2022-11-15T05:44:47;100406.95;;;5.56;100.00
57900;BME280;60605;53.716;19.940;2022-11-15T05:49:52;100409.08;;;5.56;100.00
57900;BME280;60605;53.716;19.940;2022-11-15T05:54:57;100413.73;;;5.55;100.00
57900;BME280;60605;53.716;19.940;2022-11-15T06:00:03;100407.95;;;5.54;100.00
57900;BME280;60605;53.716;19.940;2022-11-15T06:05:07;100409.41;;;5.54;100.00
57900;BME280;60605;53.716;19.940;2022-11-15T06:10:11;100414.89;;;5.57;100.00
57900;BME280;60605;53.716;19.940;2022-11-15T06:15:15;100413.05;;;5.60;100.00
57900;BME280;60605;53.716;19.940;2022-11-15T06:20:18;100414.84;;;5.57;100.00
57900;BME280;60605;53.716;19.940;2022-11-15T06:25:22;100411.08;;;5.53;100.00
57900;BME280;60605;53.716;19.940;2022-11-15T06:30:26;100407.19;;;5.50;100.00
57900;BME280;60605;53.716;19.940;2022-11-15T06:35:30;100405.79;;;5.50;100.00
57900;BME280;60605;53.716;19.940;2022-11-15T06:40:37;100401.84;;;5.51;100.00
57900;BME280;60605;53.716;19.940;2022-11-15T06:45:40;100409.73;;;5.52;100.00
57900;BME280;60605;53.716;19.940;2022-11-15T06:50:53;100412.76;;;5.52;100.00
57900;BME280;60605;53.716;19.940;2022-11-15T06:56:01;100419.09;;;5.55;100.00
57900;BME280;60605;53.716;19.940;2022-11-15T07:01:08;100424.80;;;5.59;100.00
57900;BME280;60605;53.716;19.940;2022-11-15T07:06:11;100424.00;;;5.60;100.00
57900;BME280;60605;53.716;19.940;2022-11-15T07:11:15;100427.45;;;5.61;100.00
57900;BME280;60605;53.716;19.940;2022-11-15T07:16:18;100427.27;;;5.63;100.00
57900;BME280;60605;53.716;19.940;2022-11-15T07:21:21;100423.82;;;5.65;100.00
57900;BME280;60605;53.716;19.940;2022-11-15T07:26:29;100424.71;;;5.64;100.00
57900;BME280;60605;53.716;19.940;2022-11-15T07:31:32;100416.11;;;5.66;100.00
57900;BME280;60605;53.716;19.940;2022-11-15T07:36:36;100416.27;;;5.68;100.00
57900;BME280;60605;53.716;19.940;2022-11-15T07:41:39;100406.52;;;5.73;100.00
57900;BME280;60605;53.716;19.940;2022-11-15T07:46:43;100401.72;;;5.77;100.00
57900;BME280;60605;53.716;19.940;2022-11-15T07:51:46;100403.88;;;5.82;100.00
57900;BME280;60605;53.716;19.940;2022-11-15T07:56:49;100394.31;;;5.84;100.00
57900;BME280;60605;53.716;19.940;2022-11-15T08:01:52;100392.80;;;5.85;100.00
57900;BME280;60605;53.716;19.940;2022-11-15T08:06:56;100393.89;;;5.87;100.00
57900;BME280;60605;53.716;19.940;2022-11-15T08:12:00;100393.27;;;5.91;100.00
57900;BME280;60605;53.716;19.940;2022-11-15T08:17:03;100387.77;;;5.95;100.00
57900;BME280;60605;53.716;19.940;2022-11-15T08:22:07;100382.45;;;5.99;100.00
57900;BME280;60605;53.716;19.940;2022-11-15T08:27:11;100381.84;;;6.05;100.00
57900;BME280;60605;53.716;19.940;2022-11-15T08:32:23;100385.88;;;6.10;100.00
57900;BME280;60605;53.716;19.940;2022-11-15T08:37:28;100386.70;;;6.10;100.00
57900;BME280;60605;53.716;19.940;2022-11-15T08:42:32;100383.84;;;6.11;100.00
57900;BME280;60605;53.716;19.940;2022-11-15T08:47:36;100378.33;;;6.15;100.00
57900;BME280;60605;53.716;19.940;2022-11-15T08:52:39;100374.52;;;6.21;100.00
57900;BME280;60605;53.716;19.940;2022-11-15T08:57:42;100372.84;;;6.24;100.00
57900;BME280;60605;53.716;19.940;2022-11-15T09:02:46;100373.35;;;6.22;100.00
57900;BME280;60605;53.716;19.940;2022-11-15T09:07:53;100373.80;;;6.23;100.00
57900;BME280;60605;53.716;19.940;2022-11-15T09:12:57;100380.86;;;6.26;100.00
57900;BME280;60605;53.716;19.940;2022-11-15T09:18:01;100382.75;;;6.29;100.00
57900;BME280;60605;53.716;19.940;2022-11-15T09:23:04;100382.04;;;6.33;100.00
57900;BME280;60605;53.716;19.940;2022-11-15T09:28:08;100378.95;;;6.36;100.00
57900;BME280;60605;53.716;19.940;2022-11-15T09:33:12;100373.66;;;6.40;100.00
57900;BME280;60605;53.716;19.940;2022-11-15T09:38:15;100366.65;;;6.39;100.00
57900;BME280;60605;53.716;19.940;2022-11-15T09:49:00;100354.83;;;6.43;100.00
57900;BME280;60605;53.716;19.940;2022-11-15T10:04:43;100346.77;;;6.58;100.00
57900;BME280;60605;53.716;19.940;2022-11-15T10:09:56;100342.73;;;6.62;100.00
57900;BME280;60605;53.716;19.940;2022-11-15T10:15:05;100342.52;;;6.66;100.00
57900;BME280;60605;53.716;19.940;2022-11-15T10:20:12;100340.39;;;6.66;100.00
57900;BME280;60605;53.716;19.940;2022-11-15T10:25:27;100339.14;;;6.62;100.00
57900;BME280;60605;53.716;19.940;2022-11-15T10:30:37;100340.56;;;6.58;100.00
57900;BME280;60605;53.716;19.940;2022-11-15T10:35:40;100331.70;;;6.54;100.00
57900;BME280;60605;53.716;19.940;2022-11-15T10:40:44;100332.34;;;6.48;100.00
57900;BME280;60605;53.716;19.940;2022-11-15T10:45:48;100332.61;;;6.51;100.00
57900;BME280;60605;53.716;19.940;2022-11-15T10:50:54;100329.20;;;6.56;100.00
57900;BME280;60605;53.716;19.940;2022-11-15T10:56:02;100334.30;;;6.59;100.00
57900;BME280;60605;53.716;19.940;2022-11-15T11:01:35;100341.36;;;6.66;100.00
57900;BME280;60605;53.716;19.940;2022-11-15T11:06:52;100332.44;;;6.70;100.00
57900;BME280;60605;53.716;19.940;2022-11-15T11:11:56;100331.23;;;6.72;100.00
57900;BME280;60605;53.716;19.940;2022-11-15T11:17:16;100328.69;;;6.71;100.00
57900;BME280;60605;53.716;19.940;2022-11-15T11:22:34;100324.09;;;6.68;100.00
57900;BME280;60605;53.716;19.940;2022-11-15T11:33:19;100302.48;;;6.55;100.00
57900;BME280;60605;53.716;19.940;2022-11-15T11:49:08;100290.10;;;6.36;100.00
57900;BME280;60605;53.716;19.940;2022-11-15T11:54:25;100289.50;;;6.32;100.00
57900;BME280;60605;53.716;19.940;2022-11-15T11:59:42;100277.50;;;6.29;100.00
57900;BME280;60605;53.716;19.940;2022-11-15T12:04:51;100269.55;;;6.22;100.00
57900;BME280;60605;53.716;19.940;2022-11-15T12:10:03;100272.58;;;6.16;100.00
57900;BME280;60605;53.716;19.940;2022-11-15T12:20:20;100269.08;;;6.12;100.00
57900;BME280;60605;53.716;19.940;2022-11-15T12:25:32;100269.92;;;6.12;100.00
57900;BME280;60605;53.716;19.940;2022-11-15T12:30:59;100269.84;;;6.11;100.00
57900;BME280;60605;53.716;19.940;2022-11-15T12:36:12;100264.55;;;6.10;100.00
57900;BME280;60605;53.716;19.940;2022-11-15T12:41:35;100262.59;;;6.10;100.00
57900;BME280;60605;53.716;19.940;2022-11-15T12:56:45;100260.02;;;5.94;100.00
57900;BME280;60605;53.716;19.940;2022-11-15T13:12:06;100256.27;;;5.81;100.00
57900;BME280;60605;53.716;19.940;2022-11-15T13:17:32;100252.92;;;5.76;100.00
57900;BME280;60605;53.716;19.940;2022-11-15T13:27:57;100250.93;;;5.75;100.00
57900;BME280;60605;53.716;19.940;2022-11-15T13:33:14;100244.91;;;5.75;100.00
57900;BME280;60605;53.716;19.940;2022-11-15T13:43:35;100242.52;;;5.74;100.00
57900;BME280;60605;53.716;19.940;2022-11-15T13:48:40;100239.79;;;5.72;100.00
57900;BME280;60605;53.716;19.940;2022-11-15T13:53:47;100239.15;;;5.68;100.00
57900;BME280;60605;53.716;19.940;2022-11-15T13:58:52;100232.86;;;5.60;100.00
57900;BME280;60605;53.716;19.940;2022-11-15T14:03:59;100232.13;;;5.56;100.00
57900;BME280;60605;53.716;19.940;2022-11-15T14:09:23;100233.82;;;5.52;100.00
57900;BME280;60605;53.716;19.940;2022-11-15T14:14:28;100230.96;;;5.50;100.00
57900;BME280;60605;53.716;19.940;2022-11-15T14:24:35;100220.98;;;5.48;100.00
57900;BME280;60605;53.716;19.940;2022-11-15T14:29:39;100216.22;;;5.48;100.00
57900;BME280;60605;53.716;19.940;2022-11-15T14:34:42;100217.36;;;5.47;100.00
57900;BME280;60605;53.716;19.940;2022-11-15T14:39:46;100216.36;;;5.46;100.00
57900;BME280;60605;53.716;19.940;2022-11-15T14:44:50;100208.87;;;5.47;100.00
57900;BME280;60605;53.716;19.940;2022-11-15T14:49:54;100201.34;;;5.48;100.00
57900;BME280;60605;53.716;19.940;2022-11-15T14:54:57;100202.83;;;5.50;100.00
57900;BME280;60605;53.716;19.940;2022-11-15T15:00:04;100201.61;;;5.52;100.00
57900;BME280;60605;53.716;19.940;2022-11-15T15:05:18;100195.14;;;5.53;100.00
57900;BME280;60605;53.716;19.940;2022-11-15T15:10:21;100191.33;;;5.54;100.00
57900;BME280;60605;53.716;19.940;2022-11-15T15:15:43;100193.75;;;5.53;100.00
57900;BME280;60605;53.716;19.940;2022-11-15T15:20:57;100193.86;;;5.53;100.00
57900;BME280;60605;53.716;19.940;2022-11-15T15:26:10;100185.43;;;5.53;100.00
57900;BME280;60605;53.716;19.940;2022-11-15T15:31:14;100188.98;;;5.52;100.00
57900;BME280;60605;53.716;19.940;2022-11-15T15:36:18;100188.22;;;5.53;100.00
57900;BME280;60605;53.716;19.940;2022-11-15T15:41:22;100186.86;;;5.55;100.00
57900;BME280;60605;53.716;19.940;2022-11-15T15:46:26;100186.64;;;5.55;100.00
57900;BME280;60605;53.716;19.940;2022-11-15T15:51:31;100185.17;;;5.56;100.00
57900;BME280;60605;53.716;19.940;2022-11-15T15:56:34;100178.95;;;5.56;100.00
57900;BME280;60605;53.716;19.940;2022-11-15T16:01:37;100177.64;;;5.57;100.00
57900;BME280;60605;53.716;19.940;2022-11-15T16:06:41;100175.80;;;5.58;100.00
57900;BME280;60605;53.716;19.940;2022-11-15T16:11:48;100172.36;;;5.59;100.00
57900;BME280;60605;53.716;19.940;2022-11-15T16:16:51;100179.63;;;5.61;100.00
57900;BME280;60605;53.716;19.940;2022-11-15T16:21:54;100182.13;;;5.63;100.00
57900;BME280;60605;53.716;19.940;2022-11-15T16:26:58;100182.50;;;5.65;100.00
57900;BME280;60605;53.716;19.940;2022-11-15T16:32:02;100186.55;;;5.67;100.00
57900;BME280;60605;53.716;19.940;2022-11-15T16:37:22;100187.42;;;5.70;100.00
57900;BME280;60605;53.716;19.940;2022-11-15T16:42:27;100177.94;;;5.70;100.00
57900;BME280;60605;53.716;19.940;2022-11-15T16:47:31;100176.27;;;5.71;100.00
57900;BME280;60605;53.716;19.940;2022-11-15T16:52:34;100176.52;;;5.70;100.00
57900;BME280;60605;53.716;19.940;2022-11-15T16:57:37;100176.05;;;5.70;100.00
57900;BME280;60605;53.716;19.940;2022-11-15T17:02:43;100171.16;;;5.69;100.00
57900;BME280;60605;53.716;19.940;2022-11-15T17:07:48;100175.39;;;5.69;100.00
57900;BME280;60605;53.716;19.940;2022-11-15T17:12:54;100174.30;;;5.69;100.00
57900;BME280;60605;53.716;19.940;2022-11-15T17:17:58;100171.68;;;5.69;100.00
57900;BME280;60605;53.716;19.940;2022-11-15T17:23:02;100169.92;;;5.69;100.00
57900;BME280;60605;53.716;19.940;2022-11-15T17:28:06;100163.23;;;5.68;100.00
57900;BME280;60605;53.716;19.940;2022-11-15T17:33:10;100160.45;;;5.68;100.00
57900;BME280;60605;53.716;19.940;2022-11-15T17:38:13;100165.97;;;5.70;100.00
57900;BME280;60605;53.716;19.940;2022-11-15T17:43:17;100169.53;;;5.71;100.00
57900;BME280;60605;53.716;19.940;2022-11-15T17:48:20;100173.85;;;5.73;100.00
57900;BME280;60605;53.716;19.940;2022-11-15T17:53:25;100180.98;;;5.72;100.00
57900;BME280;60605;53.716;19.940;2022-11-15T17:58:29;100186.46;;;5.72;100.00
57900;BME280;60605;53.716;19.940;2022-11-15T18:03:37;100175.46;;;5.73;100.00
57900;BME280;60605;53.716;19.940;2022-11-15T18:08:44;100174.79;;;5.74;100.00
57900;BME280;60605;53.716;19.940;2022-11-15T18:13:54;100173.14;;;5.77;100.00
57900;BME280;60605;53.716;19.940;2022-11-15T18:18:59;100164.81;;;5.77;100.00
57900;BME280;60605;53.716;19.940;2022-11-15T18:24:03;100167.94;;;5.78;100.00
57900;BME280;60605;53.716;19.940;2022-11-15T18:29:07;100167.58;;;5.80;100.00
57900;BME280;60605;53.716;19.940;2022-11-15T18:34:10;100174.05;;;5.81;100.00
57900;BME280;60605;53.716;19.940;2022-11-15T18:39:14;100179.48;;;5.82;100.00
57900;BME280;60605;53.716;19.940;2022-11-15T18:44:19;100184.30;;;5.81;100.00
57900;BME280;60605;53.716;19.940;2022-11-15T18:49:22;100179.73;;;5.81;100.00
57900;BME280;60605;53.716;19.940;2022-11-15T18:54:26;100178.79;;;5.82;100.00
57900;BME280;60605;53.716;19.940;2022-11-15T18:59:33;100177.30;;;5.83;100.00
57900;BME280;60605;53.716;19.940;2022-11-15T19:04:36;100180.63;;;5.83;100.00
57900;BME280;60605;53.716;19.940;2022-11-15T19:09:40;100179.16;;;5.84;100.00
57900;BME280;60605;53.716;19.940;2022-11-15T19:14:43;100179.19;;;5.85;100.00
57900;BME280;60605;53.716;19.940;2022-11-15T19:19:47;100172.77;;;5.88;100.00
57900;BME280;60605;53.716;19.940;2022-11-15T19:24:50;100163.33;;;5.89;100.00
57900;BME280;60605;53.716;19.940;2022-11-15T19:29:54;100164.36;;;5.89;100.00
57900;BME280;60605;53.716;19.940;2022-11-15T19:35:00;100158.45;;;5.90;100.00
57900;BME280;60605;53.716;19.940;2022-11-15T19:40:28;100161.78;;;5.91;100.00
57900;BME280;60605;53.716;19.940;2022-11-15T19:45:34;100161.03;;;5.91;100.00
57900;BME280;60605;53.716;19.940;2022-11-15T19:50:38;100162.44;;;5.91;100.00
57900;BME280;60605;53.716;19.940;2022-11-15T19:55:51;100156.91;;;5.91;100.00
57900;BME280;60605;53.716;19.940;2022-11-15T20:01:07;100147.30;;;5.92;100.00
57900;BME280;60605;53.716;19.940;2022-11-15T20:06:16;100146.23;;;5.94;100.00
57900;BME280;60605;53.716;19.940;2022-11-15T20:11:20;100143.06;;;5.96;100.00
57900;BME280;60605;53.716;19.940;2022-11-15T20:16:24;100141.55;;;5.97;100.00
57900;BME280;60605;53.716;19.940;2022-11-15T20:21:28;100134.40;;;5.98;100.00
57900;BME280;60605;53.716;19.940;2022-11-15T20:26:31;100133.35;;;5.98;100.00
57900;BME280;60605;53.716;19.940;2022-11-15T20:31:34;100140.52;;;5.99;100.00
57900;BME280;60605;53.716;19.940;2022-11-15T20:36:39;100146.95;;;6.00;100.00
57900;BME280;60605;53.716;19.940;2022-11-15T20:41:42;100152.87;;;6.02;100.00
57900;BME280;60605;53.716;19.940;2022-11-15T20:46:47;100150.31;;;6.03;100.00
57900;BME280;60605;53.716;19.940;2022-11-15T20:51:51;100145.20;;;6.04;100.00
57900;BME280;60605;53.716;19.940;2022-11-15T20:56:54;100143.83;;;6.06;100.00
57900;BME280;60605;53.716;19.940;2022-11-15T21:01:59;100134.96;;;6.08;100.00
57900;BME280;60605;53.716;19.940;2022-11-15T21:07:03;100124.03;;;6.09;100.00
57900;BME280;60605;53.716;19.940;2022-11-15T21:12:11;100118.27;;;6.10;100.00
57900;BME280;60605;53.716;19.940;2022-11-15T21:17:15;100119.84;;;6.11;100.00
57900;BME280;60605;53.716;19.940;2022-11-15T21:22:20;100119.64;;;6.11;100.00
57900;BME280;60605;53.716;19.940;2022-11-15T21:27:24;100125.35;;;6.11;100.00
57900;BME280;60605;53.716;19.940;2022-11-15T21:32:27;100121.54;;;6.10;100.00
57900;BME280;60605;53.716;19.940;2022-11-15T21:37:31;100117.21;;;6.08;100.00
57900;BME280;60605;53.716;19.940;2022-11-15T21:42:35;100105.47;;;6.06;100.00
57900;BME280;60605;53.716;19.940;2022-11-15T21:47:38;100099.32;;;6.04;100.00
57900;BME280;60605;53.716;19.940;2022-11-15T21:52:47;100103.85;;;6.01;100.00
57900;BME280;60605;53.716;19.940;2022-11-15T21:57:50;100099.30;;;5.98;100.00
57900;BME280;60605;53.716;19.940;2022-11-15T22:02:54;100096.31;;;5.96;100.00
57900;BME280;60605;53.716;19.940;2022-11-15T22:07:57;100092.53;;;5.94;100.00
57900;BME280;60605;53.716;19.940;2022-11-15T22:13:01;100087.98;;;5.93;100.00
57900;BME280;60605;53.716;19.940;2022-11-15T22:18:04;100084.27;;;5.91;100.00
57900;BME280;60605;53.716;19.940;2022-11-15T22:23:08;100091.19;;;5.89;100.00
57900;BME280;60605;53.716;19.940;2022-11-15T22:28:11;100096.15;;;5.87;100.00
57900;BME280;60605;53.716;19.940;2022-11-15T22:33:15;100099.72;;;5.87;100.00
57900;BME280;60605;53.716;19.940;2022-11-15T22:38:19;100099.66;;;5.88;100.00
57900;BME280;60605;53.716;19.940;2022-11-15T22:43:24;100094.04;;;5.89;100.00
57900;BME280;60605;53.716;19.940;2022-11-15T22:48:30;100092.75;;;5.89;100.00
57900;BME280;60605;53.716;19.940;2022-11-15T22:53:34;100088.64;;;5.90;100.00
57900;BME280;60605;53.716;19.940;2022-11-15T22:58:38;100088.86;;;5.89;100.00
57900;BME280;60605;53.716;19.940;2022-11-15T23:03:42;100081.78;;;5.89;100.00
57900;BME280;60605;53.716;19.940;2022-11-15T23:08:45;100076.05;;;5.90;100.00
57900;BME280;60605;53.716;19.940;2022-11-15T23:13:50;100073.80;;;5.91;100.00
57900;BME280;60605;53.716;19.940;2022-11-15T23:18:58;100074.36;;;5.93;100.00
57900;BME280;60605;53.716;19.940;2022-11-15T23:24:03;100064.08;;;5.95;100.00
57900;BME280;60605;53.716;19.940;2022-11-15T23:29:08;100062.20;;;5.96;100.00
57900;BME280;60605;53.716;19.940;2022-11-15T23:34:11;100067.98;;;5.97;100.00
57900;BME280;60605;53.716;19.940;2022-11-15T23:39:20;100062.56;;;5.98;100.00
57900;BME280;60605;53.716;19.940;2022-11-15T23:44:24;100060.85;;;6.00;100.00
57900;BME280;60605;53.716;19.940;2022-11-15T23:49:27;100052.73;;;6.02;100.00
57900;BME280;60605;53.716;19.940;2022-11-15T23:54:30;100047.30;;;6.03;100.00
57900;BME280;60605;53.716;19.940;2022-11-15T23:59:34;100041.30;;;6.04;100.00
